createdAt,value
2024-04-25T00:01:18.978Z,87.12
2024-04-25T00:06:59.888Z,87.21
2024-04-25T00:12:25.639Z,87.17
2024-04-25T00:17:51.005Z,87.20
2024-04-25T00:23:16.354Z,87.37
2024-04-25T00:28:41.595Z,87.40
2024-04-25T00:34:06.900Z,87.56
2024-04-25T00:39:32.201Z,88.17
2024-04-25T00:44:57.629Z,88.88
2024-04-25T00:50:25.087Z,89.60
2024-04-25T00:55:50.917Z,90.04
2024-04-25T01:01:18.451Z,90.26
2024-04-25T01:06:45.702Z,90.29
2024-04-25T01:12:11.683Z,90.58
2024-04-25T01:17:36.966Z,90.97
2024-04-25T01:23:06.788Z,91.03
2024-04-25T01:28:34.603Z,91.13
2024-04-25T01:34:02.520Z,91.54
2024-04-25T01:39:28.463Z,91.75
2024-04-25T01:44:57.287Z,92.14
2024-04-25T01:50:22.580Z,92.64
2024-04-25T01:55:47.811Z,92.45
2024-04-25T02:01:13.016Z,92.03
2024-04-25T02:06:38.203Z,91.94
2024-04-25T02:12:03.688Z,92.14
2024-04-25T02:17:29.945Z,92.04
2024-04-25T02:22:53.911Z,92.13
2024-04-25T02:28:19.118Z,92.27
2024-04-25T02:33:44.324Z,92.38
2024-04-25T02:39:09.540Z,92.73
2024-04-25T02:44:34.819Z,92.81
2024-04-25T02:50:00.062Z,92.78
2024-04-25T02:55:27.142Z,92.78
2024-04-25T03:00:43.287Z,92.77
2024-04-25T03:06:08.572Z,92.97
2024-04-25T03:11:16.589Z,93.05
2024-04-25T03:16:32.691Z,93.54
2024-04-25T03:22:07.833Z,94.09
2024-04-25T03:27:33.084Z,94.31
2024-04-25T03:32:59.234Z,94.63
2024-04-25T03:38:25.093Z,95.03
2024-04-25T03:43:50.351Z,95.30
2024-04-25T03:49:15.619Z,95.70
2024-04-25T03:54:40.876Z,95.75
2024-04-25T04:00:06.077Z,96.33
2024-04-25T04:05:31.351Z,96.67
2024-04-25T04:10:49.943Z,96.73
2024-04-25T04:16:15.264Z,97.09
2024-04-25T04:21:44.245Z,97.27
2024-04-25T04:27:11.254Z,97.67
2024-04-25T04:32:36.742Z,98.00
2024-04-25T04:38:02.255Z,98.01
2024-04-25T04:43:27.828Z,98.03
2024-04-25T04:48:53.367Z,98.02
2024-04-25T04:54:18.951Z,97.89
2024-04-25T04:59:44.218Z,97.88
2024-04-25T05:05:10.123Z,98.06
2024-04-25T05:10:35.615Z,97.64
2024-04-25T05:16:00.984Z,97.34
2024-04-25T05:21:26.985Z,97.22
2024-04-25T05:26:53.105Z,96.80
2024-04-25T05:32:10.902Z,96.06
2024-04-25T05:37:36.143Z,95.60
2024-04-25T05:43:01.362Z,95.16
2024-04-25T05:48:28.330Z,94.86
2024-04-25T05:53:53.767Z,95.34
2024-04-25T05:59:19.296Z,93.18
2024-04-25T06:04:44.646Z,92.72
2024-04-25T06:10:11.530Z,90.77
2024-04-25T06:15:37.285Z,90.46
2024-04-25T06:21:02.566Z,89.14
2024-04-25T06:26:27.948Z,87.03
2024-04-25T06:31:53.210Z,86.36
2024-04-25T06:37:18.479Z,85.09
2024-04-25T06:42:43.718Z,85.25
2024-04-25T06:48:03.680Z,85.01
2024-04-25T06:53:29.408Z,85.03
2024-04-25T06:58:39.327Z,84.79
2024-04-25T07:04:04.614Z,84.43
2024-04-25T07:09:14.426Z,84.59
2024-04-25T07:14:39.947Z,84.85
2024-04-25T07:19:54.947Z,85.18
2024-04-25T07:25:20.319Z,84.73
2024-04-25T07:30:35.465Z,85.07
2024-04-25T07:35:50.608Z,84.78
2024-04-25T07:41:14.948Z,85.06
2024-04-25T07:46:25.020Z,85.22
2024-04-25T07:51:43.010Z,85.44
2024-04-25T07:57:08.207Z,85.30
2024-04-25T08:02:33.559Z,84.81
2024-04-25T08:08:01.755Z,84.92
2024-04-25T08:13:10.090Z,84.88
2024-04-25T08:18:28.993Z,84.50
2024-04-25T08:23:48.096Z,84.59
2024-04-25T08:29:04.755Z,84.84
2024-04-25T08:34:19.128Z,84.37
2024-04-25T08:39:34.845Z,84.73
2024-04-25T08:45:00.931Z,85.05
2024-04-25T08:50:28.928Z,84.27
2024-04-25T08:55:49.202Z,84.45
2024-04-25T09:01:14.929Z,83.14
2024-04-25T09:06:40.162Z,83.10
2024-04-25T09:11:54.799Z,81.66
2024-04-25T09:17:13.718Z,81.36
2024-04-25T09:22:37.716Z,81.06
2024-04-25T09:28:02.966Z,81.55
2024-04-25T09:33:21.353Z,80.98
2024-04-25T09:38:46.876Z,80.36
2024-04-25T09:44:03.542Z,79.48
2024-04-25T09:49:34.846Z,78.22
2024-04-25T09:55:07.058Z,78.13
2024-04-25T10:00:32.194Z,78.20
2024-04-25T10:05:58.750Z,77.98
2024-04-25T10:11:24.377Z,77.28
2024-04-25T10:16:51.172Z,77.44
2024-04-25T10:22:16.396Z,78.22
2024-04-25T10:27:41.820Z,77.34
2024-04-25T10:33:07.153Z,78.45
2024-04-25T10:38:52.475Z,78.54
2024-04-25T10:44:21.403Z,79.04
2024-04-25T10:49:46.696Z,78.51
2024-04-25T10:55:13.314Z,78.61
2024-04-25T11:00:38.891Z,78.16
2024-04-25T11:06:05.437Z,76.42
2024-04-25T11:11:31.207Z,75.03
2024-04-25T11:16:49.679Z,73.09
2024-04-25T11:22:25.629Z,72.67
2024-04-25T11:28:00.786Z,72.74
2024-04-25T11:33:19.389Z,72.59
2024-04-25T11:38:28.868Z,72.47
2024-04-25T11:43:54.203Z,73.00
2024-04-25T11:49:20.028Z,72.58
2024-04-25T11:54:29.953Z,72.06
2024-04-25T11:59:46.884Z,72.20
2024-04-25T12:05:02.418Z,71.68
2024-04-25T12:10:19.443Z,71.81
2024-04-25T12:15:44.743Z,72.21
2024-04-25T12:20:52.391Z,70.87
2024-04-25T12:26:17.690Z,70.75
2024-04-25T12:31:27.577Z,70.82
2024-04-25T12:36:52.787Z,69.33
2024-04-25T12:42:17.992Z,69.05
2024-04-25T12:47:43.480Z,67.48
2024-04-25T12:53:08.763Z,63.89
2024-04-25T12:58:18.284Z,63.65
2024-04-25T13:03:43.667Z,64.91
2024-04-25T13:09:09.098Z,64.31
2024-04-25T13:14:34.609Z,62.70
2024-04-25T13:19:59.923Z,61.83
2024-04-25T13:25:25.898Z,61.57
2024-04-25T13:30:51.306Z,61.26
2024-04-25T13:36:16.750Z,61.52
2024-04-25T13:41:42.193Z,61.39
2024-04-25T13:47:07.529Z,61.59
2024-04-25T13:52:32.957Z,60.08
2024-04-25T13:57:58.932Z,60.13
2024-04-25T14:03:24.406Z,58.98
2024-04-25T14:08:40.835Z,58.42
2024-04-25T14:14:06.063Z,58.14
2024-04-25T14:19:24.180Z,58.19
2024-04-25T14:24:32.591Z,58.41
2024-04-25T14:29:49.871Z,59.59
2024-04-25T14:35:15.201Z,60.29
2024-04-25T14:40:29.646Z,60.49
2024-04-25T14:45:37.923Z,61.17
2024-04-25T14:51:03.188Z,60.94
2024-04-25T14:56:29.484Z,60.72
2024-04-25T15:01:54.752Z,61.43
2024-04-25T15:07:20.058Z,61.71
2024-04-25T15:12:45.301Z,61.68
2024-04-25T15:18:09.192Z,61.42
2024-04-25T15:23:34.733Z,61.52
2024-04-25T15:29:00.041Z,61.51
2024-04-25T15:34:25.337Z,61.95
2024-04-25T15:39:50.671Z,61.42
2024-04-25T15:45:15.989Z,61.91
2024-04-25T15:50:41.211Z,63.31
2024-04-25T15:56:05.642Z,65.53
2024-04-25T16:01:32.361Z,67.42
2024-04-25T16:06:57.775Z,70.16
2024-04-25T16:12:15.619Z,71.03
2024-04-25T16:17:41.048Z,71.20
2024-04-25T16:23:06.384Z,71.37
2024-04-25T16:28:31.697Z,72.10
2024-04-25T16:33:46.957Z,72.35
2024-04-25T16:39:12.395Z,72.23
2024-04-25T16:44:30.067Z,71.76
2024-04-25T16:49:55.490Z,71.79
2024-04-25T16:55:20.698Z,71.37
2024-04-25T17:00:46.920Z,70.73
2024-04-25T17:06:13.199Z,70.27
2024-04-25T17:11:40.696Z,70.17
2024-04-25T17:16:49.098Z,70.82
2024-04-25T17:22:07.919Z,70.50
2024-04-25T17:27:22.590Z,70.21
2024-04-25T17:32:49.818Z,69.47
2024-04-25T17:38:09.176Z,69.50
2024-04-25T17:43:35.665Z,69.60
2024-04-25T17:49:02.624Z,70.37
2024-04-25T17:54:28.176Z,70.75
2024-04-25T17:59:53.422Z,71.15
2024-04-25T18:05:10.282Z,72.04
2024-04-25T18:10:37.089Z,72.53
2024-04-25T18:15:43.697Z,73.23
2024-04-25T18:20:53.788Z,73.33
2024-04-25T18:26:28.363Z,73.11
2024-04-25T18:31:44.685Z,73.03
2024-04-25T18:37:02.399Z,73.28
2024-04-25T18:42:29.613Z,73.44
2024-04-25T18:47:54.998Z,73.49
2024-04-25T18:53:21.621Z,73.47
2024-04-25T18:58:48.091Z,73.89
2024-04-25T19:04:15.674Z,74.20
2024-04-25T19:09:44.090Z,73.84
2024-04-25T19:15:12.358Z,74.38
2024-04-25T19:20:39.421Z,74.77
2024-04-25T19:26:06.462Z,75.40
2024-04-25T19:31:29.659Z,75.67
2024-04-25T19:36:57.515Z,75.88
2024-04-25T19:42:20.590Z,76.29
2024-04-25T19:47:46.203Z,76.56
2024-04-25T19:53:14.993Z,76.79
2024-04-25T19:58:34.082Z,77.11
2024-04-25T20:04:01.644Z,77.31
2024-04-25T20:09:21.886Z,77.44
2024-04-25T20:15:00.602Z,77.68
2024-04-25T20:20:27.892Z,78.09
2024-04-25T20:25:54.495Z,78.29
2024-04-25T20:31:22.401Z,78.38
2024-04-25T20:36:49.876Z,78.52
2024-04-25T20:42:02.038Z,78.64
2024-04-25T20:47:26.721Z,79.11
2024-04-25T20:52:53.454Z,79.27
2024-04-25T20:58:18.604Z,79.57
2024-04-25T21:03:36.680Z,80.06
2024-04-25T21:09:02.083Z,79.78
2024-04-25T21:14:27.444Z,80.16
2024-04-25T21:19:52.890Z,80.33
2024-04-25T21:25:18.034Z,80.66
2024-04-25T21:30:43.209Z,80.86
2024-04-25T21:36:08.417Z,81.23
2024-04-25T21:41:33.777Z,81.99
2024-04-25T21:46:59.987Z,82.42
2024-04-25T21:52:25.828Z,83.09
2024-04-25T21:57:51.092Z,83.61
2024-04-25T22:03:18.604Z,84.27
2024-04-25T22:08:44.042Z,84.23
2024-04-25T22:14:09.344Z,84.61
2024-04-25T22:19:34.603Z,84.72
2024-04-25T22:25:00.040Z,84.95
2024-04-25T22:30:20.742Z,85.07
2024-04-25T22:35:45.974Z,84.70
2024-04-25T22:41:11.212Z,85.26
2024-04-25T22:46:36.651Z,85.27
2024-04-25T22:52:01.859Z,85.70
2024-04-25T22:57:27.545Z,85.82
2024-04-25T23:02:52.808Z,85.95
2024-04-25T23:08:18.092Z,86.10
2024-04-25T23:13:43.578Z,86.46
2024-04-25T23:19:08.860Z,86.71
2024-04-25T23:24:34.386Z,86.89
2024-04-25T23:29:59.841Z,86.88
2024-04-25T23:35:26.211Z,87.13
2024-04-25T23:40:51.457Z,87.28
2024-04-25T23:46:16.747Z,87.22
2024-04-25T23:51:41.959Z,87.47
2024-04-25T23:57:07.586Z,87.68
